Babb, Montana
Current Conditions -  °F | °C
As of 7:47 PM on Friday 28 Nov 2014 (Local Time) from KCTB Reporting Station
Light Snow Light Snow  
Wind Chill: -33°   Ceiling: 1200
Heat Index: -21°   Visibility: 0.75mi
Dew Point: -23°   Wind: 18mph
Humidity: 80%   Direction: 350°N
Pressure: 29.59"   Gusts: NA
Location:  48.85°N, 113.44°W
Report Text: KCTB 290247Z AUTO 35016KT 3/4SM -SN BKN012 OVC032 M21/M23 A2959 RMK AO2 P0000 T12061233
Loading
Personal Weather Stations






























Interactive Weather Map New forecast layout! Learn more

10-Day Weather Forecast

Advertisements
Track Severe Weather on mobile